Time;durP1;ratioP1;P1;durP2;ratioP2;P2;SDS_P1;SDS_P2;PMS_P1;PMS_P2;Temp;Humidity;BMP_temperature;BMP_pressure;BME280_temperature;BME280_humidity;BME280_pressure;Samples;Min_cycle;Max_cycle;Signal;HPM_P1;HPM_P2
2023/07/20 00:01:28;;;;;;;32.92;12.43;;;28.30;92.30;;;;;;5011072;28;20534;-80
2023/07/20 00:04:32;;;;;;;31.65;11.88;;;28.20;92.40;;;;;;5011852;28;20053;-80
2023/07/20 00:07:36;;;;;;;22.75;11.98;;;28.30;92.20;;;;;;5011800;28;20045;-80
2023/07/20 00:10:41;;;;;;;27.83;11.07;;;28.30;92.10;;;;;;5011466;28;20052;-80
2023/07/20 00:13:45;;;;;;;28.52;10.98;;;28.20;92.30;;;;;;5011417;28;20524;-80
2023/07/20 00:16:55;;;;;;;24.52;12.15;;;28.10;92.40;;;;;;5010702;28;20049;-79
2023/07/20 00:19:59;;;;;;;36.60;12.20;;;28.10;92.30;;;;;;5011589;28;20053;-78
2023/07/20 00:23:03;;;;;;;31.08;10.73;;;28.10;92.20;;;;;;5011609;28;20052;-78
2023/07/20 00:26:07;;;;;;;19.65;11.18;;;28.10;92.40;;;;;;5010406;28;20040;-78
2023/07/20 00:29:11;;;;;;;27.75;11.57;;;28.10;92.00;;;;;;5011282;28;20041;-80
2023/07/20 00:32:15;;;;;;;26.80;12.20;;;28.20;91.80;;;;;;5011076;28;20167;-78
2023/07/20 00:35:19;;;;;;;30.90;12.63;;;28.00;92.30;;;;;;5010407;28;20053;-79
2023/07/20 00:38:23;;;;;;;25.13;12.05;;;27.90;92.40;;;;;;5010906;28;20045;-79
2023/07/20 00:41:29;;;;;;;26.20;10.43;;;27.70;92.70;;;;;;5011206;28;20053;-79
2023/07/20 00:44:34;;;;;;;24.67;11.70;;;27.70;92.90;;;;;;5010261;28;20069;-79
2023/07/20 00:47:38;;;;;;;24.00;10.95;;;27.80;92.50;;;;;;5010109;28;20049;-79
2023/07/20 00:50:42;;;;;;;26.27;11.90;;;27.90;92.20;;;;;;5010153;28;20045;-79
2023/07/20 00:53:46;;;;;;;30.02;10.82;;;27.80;92.10;;;;;;5011375;28;20053;-79
2023/07/20 00:56:54;;;;;;;22.38;10.55;;;27.90;92.20;;;;;;5009930;28;20041;-79
2023/07/20 00:59:58;;;;;;;27.02;11.45;;;27.90;92.00;;;;;;5009961;28;20512;-79
2023/07/20 01:03:02;;;;;;;27.85;11.38;;;27.90;92.00;;;;;;5010879;28;20049;-79
2023/07/20 01:06:26;;;;;;;30.88;11.35;;;27.90;92.00;;;;;;5009913;28;20433;-79
2023/07/20 01:09:34;;;;;;;27.27;10.95;;;27.90;91.90;;;;;;5010850;28;20041;-79
2023/07/20 01:12:42;;;;;;;26.25;10.93;;;27.80;91.90;;;;;;5009620;28;20528;-78
2023/07/20 01:15:51;;;;;;;21.80;10.98;;;27.60;92.10;;;;;;5009680;28;20042;-79
2023/07/20 01:18:55;;;;;;;26.83;11.95;;;27.30;92.40;;;;;;5010666;28;20401;-79
2023/07/20 01:22:27;;;;;;;25.05;11.75;;;27.20;93.00;;;;;;5009808;28;20042;-79
2023/07/20 01:26:15;;;;;;;26.98;11.18;;;27.30;92.60;;;;;;5010255;28;20041;-79
2023/07/20 01:29:27;;;;;;;31.00;11.07;;;27.50;92.30;;;;;;4993485;28;20059;-79
2023/07/20 01:32:31;;;;;;;30.20;11.57;;;27.30;92.50;;;;;;5009782;28;20061;-78
2023/07/20 01:35:37;;;;;;;28.25;11.45;;;27.30;92.50;;;;;;5009386;28;20057;-79
2023/07/20 01:38:42;;;;;;;24.15;10.77;;;27.40;92.30;;;;;;4998038;28;20409;-78
2023/07/20 01:41:46;;;;;;;21.60;10.90;;;27.50;92.00;;;;;;5009495;28;20044;-78
2023/07/20 01:44:53;;;;;;;26.70;10.88;;;27.60;91.80;;;;;;5010301;28;20060;-78
2023/07/20 01:47:57;;;;;;;26.50;10.88;;;27.60;91.60;;;;;;5010372;28;20045;-78
2023/07/20 01:51:01;;;;;;;21.02;9.57;;;27.40;91.60;;;;;;5010048;28;20049;-79
2023/07/20 01:54:05;;;;;;;21.17;10.55;;;27.30;91.70;;;;;;5009303;28;20401;-78
2023/07/20 01:57:09;;;;;;;16.67;8.70;;;27.30;91.50;;;;;;5010039;28;20049;-78
2023/07/20 02:00:13;;;;;;;20.08;10.07;;;27.30;91.60;;;;;;5009285;28;20040;-79
2023/07/20 02:03:21;;;;;;;22.65;10.45;;;27.30;91.50;;;;;;5010036;28;20058;-78
2023/07/20 02:06:25;;;;;;;30.38;10.35;;;27.30;91.50;;;;;;5009041;28;20057;-78
2023/07/20 02:09:29;;;;;;;24.02;10.30;;;27.30;91.30;;;;;;5009069;28;20045;-78
2023/07/20 02:12:33;;;;;;;22.20;9.75;;;27.30;91.40;;;;;;5008833;28;20069;-79
2023/07/20 02:15:37;;;;;;;28.50;11.00;;;27.30;91.50;;;;;;5009465;28;20045;-79
2023/07/20 02:18:41;;;;;;;21.17;11.52;;;27.30;91.50;;;;;;5008932;28;20049;-79
2023/07/20 02:21:45;;;;;;;29.13;11.45;;;27.00;91.60;;;;;;5009382;28;20041;-79
2023/07/20 02:24:50;;;;;;;24.70;10.00;;;27.00;91.90;;;;;;5008815;28;20053;-78
2023/07/20 02:27:56;;;;;;;23.42;9.55;;;27.00;91.50;;;;;;5009439;28;20041;-78
2023/07/20 02:31:00;;;;;;;42.05;11.07;;;27.10;91.30;;;;;;5009562;28;20037;-79
2023/07/20 02:34:04;;;;;;;26.10;9.52;;;27.20;90.70;;;;;;5009376;28;20504;-79
2023/07/20 02:37:08;;;;;;;26.75;11.10;;;27.10;91.10;;;;;;5008384;28;20041;-79
2023/07/20 02:40:12;;;;;;;23.55;10.82;;;27.10;91.30;;;;;;5009385;28;20037;-79
2023/07/20 02:43:17;;;;;;;27.08;10.95;;;27.00;91.70;;;;;;5010309;28;20041;-79
2023/07/20 02:46:20;;;;;;;27.90;10.75;;;27.00;91.90;;;;;;5009348;28;20041;-79
2023/07/20 02:49:24;;;;;;;22.80;11.20;;;27.00;91.80;;;;;;5008480;28;20060;-79
2023/07/20 02:52:29;;;;;;;26.67;11.07;;;27.10;92.30;;;;;;5008988;28;20053;-79
2023/07/20 02:55:33;;;;;;;21.08;11.88;;;27.10;92.50;;;;;;5009294;28;20041;-79
2023/07/20 02:58:43;;;;;;;22.23;10.95;;;27.00;92.70;;;;;;5008197;28;20512;-79
2023/07/20 03:01:47;;;;;;;23.98;11.88;;;27.00;92.90;;;;;;5009184;28;20111;-79
2023/07/20 03:04:51;;;;;;;26.25;13.00;;;26.90;93.10;;;;;;5008395;28;20048;-79
2023/07/20 03:07:56;;;;;;;26.58;12.90;;;26.70;93.10;;;;;;5009121;28;20045;-80
2023/07/20 03:11:00;;;;;;;28.45;12.55;;;26.50;94.00;;;;;;5008243;28;20052;-79
2023/07/20 03:14:06;;;;;;;22.35;11.95;;;26.50;94.00;;;;;;5009314;28;20057;-79
2023/07/20 03:17:10;;;;;;;28.90;12.48;;;26.60;93.80;;;;;;5009124;28;20191;-80
2023/07/20 03:20:14;;;;;;;18.55;11.60;;;26.70;93.40;;;;;;5008236;28;20598;-80
2023/07/20 03:23:18;;;;;;;28.30;11.57;;;26.70;93.20;;;;;;5007731;28;20045;-79
2023/07/20 03:26:22;;;;;;;25.17;11.38;;;26.70;92.80;;;;;;5008605;28;20048;-79
2023/07/20 03:29:27;;;;;;;26.83;11.63;;;26.70;92.50;;;;;;5007980;28;20394;-79
2023/07/20 03:32:31;;;;;;;22.60;10.27;;;26.70;92.10;;;;;;5008254;28;20061;-79
2023/07/20 03:35:34;;;;;;;21.15;11.27;;;26.80;91.90;;;;;;5007754;28;20128;-79
2023/07/20 03:38:39;;;;;;;27.90;11.05;;;26.80;91.70;;;;;;5007831;28;20653;-80
2023/07/20 03:41:43;;;;;;;22.00;10.93;;;26.80;91.60;;;;;;5008292;28;20516;-80
2023/07/20 03:44:47;;;;;;;25.88;11.35;;;26.80;91.80;;;;;;5008626;28;20501;-80
2023/07/20 03:47:51;;;;;;;20.48;9.80;;;26.70;91.50;;;;;;5008330;28;20045;-80
2023/07/20 03:50:55;;;;;;;28.40;9.88;;;26.70;90.60;;;;;;5007705;28;20045;-80
2023/07/20 03:53:59;;;;;;;22.25;8.98;;;26.60;90.60;;;;;;5007648;28;20052;-80
2023/07/20 03:57:03;;;;;;;23.27;9.35;;;26.60;90.50;;;;;;5007380;28;20041;-79
2023/07/20 04:00:09;;;;;;;32.38;9.60;;;26.60;90.10;;;;;;5007551;28;20053;-79
2023/07/20 04:03:17;;;;;;;17.92;9.35;;;26.50;89.90;;;;;;5008149;28;20512;-79
2023/07/20 04:06:21;;;;;;;30.63;9.85;;;26.50;90.00;;;;;;5007164;28;20045;-80
2023/07/20 04:09:25;;;;;;;20.60;10.32;;;26.50;89.70;;;;;;5008027;28;20614;-80
2023/07/20 04:12:29;;;;;;;30.58;8.95;;;26.40;89.70;;;;;;5007980;28;20052;-80
2023/07/20 04:15:33;;;;;;;29.27;9.30;;;26.40;88.20;;;;;;5007067;28;20044;-80
2023/07/20 04:18:37;;;;;;;30.92;9.07;;;26.50;87.90;;;;;;5008006;28;20048;-79
2023/07/20 04:21:41;;;;;;;34.85;9.45;;;26.60;87.70;;;;;;5007445;28;20037;-79
2023/07/20 04:24:46;;;;;;;37.53;11.18;;;26.60;87.60;;;;;;5008237;28;20119;-79
2023/07/20 04:27:51;;;;;;;23.75;9.75;;;26.60;88.20;;;;;;5007124;28;20041;-78
2023/07/20 04:31:08;;;;;;;23.65;8.27;;;26.70;88.00;;;;;;5007128;28;20061;-79
2023/07/20 04:34:12;;;;;;;27.45;9.02;;;26.70;86.70;;;;;;5008302;28;20517;-79
2023/07/20 04:37:17;;;;;;;25.90;9.00;;;26.70;86.30;;;;;;5010496;28;20041;-79
2023/07/20 04:40:21;;;;;;;28.05;8.27;;;26.70;86.10;;;;;;5010501;28;20041;-79
2023/07/20 04:43:24;;;;;;;27.23;8.07;;;26.80;85.40;;;;;;5010311;28;20390;-79
2023/07/20 04:46:29;;;;;;;31.55;9.48;;;27.00;85.40;;;;;;5009973;28;20401;-79
2023/07/20 04:49:34;;;;;;;39.55;8.98;;;27.30;84.20;;;;;;5010330;28;20044;-79
2023/07/20 04:52:38;;;;;;;40.13;9.50;;;27.50;83.90;;;;;;5009925;28;20054;-79
2023/07/20 04:55:50;;;;;;;31.23;9.55;;;27.60;83.80;;;;;;5010014;28;20405;-79
2023/07/20 04:58:55;;;;;;;33.08;9.73;;;27.60;84.50;;;;;;5009851;28;20049;-79
2023/07/20 05:01:59;;;;;;;29.55;11.10;;;27.70;84.90;;;;;;5009845;28;20538;-79
2023/07/20 05:05:05;;;;;;;28.48;9.93;;;28.00;84.50;;;;;;4998710;28;20045;-79
2023/07/20 05:08:10;;;;;;;23.75;10.20;;;28.10;84.10;;;;;;4998909;28;20048;-79
2023/07/20 05:11:13;;;;;;;29.67;10.03;;;28.10;84.60;;;;;;5009983;28;20041;-79
2023/07/20 05:14:17;;;;;;;51.33;10.88;;;28.20;85.10;;;;;;5010681;28;20595;-79
2023/07/20 05:17:22;;;;;;;34.63;10.38;;;28.40;85.50;;;;;;5009758;28;20052;-80
2023/07/20 05:20:26;;;;;;;26.63;9.82;;;28.50;85.50;;;;;;5009892;28;20049;-79
2023/07/20 05:23:32;;;;;;;36.92;11.40;;;28.80;85.90;;;;;;5009863;28;20056;-79
2023/07/20 05:26:36;;;;;;;27.92;10.98;;;28.90;86.20;;;;;;4998234;28;20041;-79
2023/07/20 05:29:46;;;;;;;37.38;12.40;;;28.80;87.20;;;;;;5010556;28;20045;-79
2023/07/20 05:32:52;;;;;;;30.47;10.93;;;28.80;87.40;;;;;;5009123;28;20611;-79
2023/07/20 05:35:56;;;;;;;32.90;11.02;;;28.90;87.20;;;;;;5010213;28;20150;-79
2023/07/20 05:39:00;;;;;;;38.03;12.20;;;29.20;86.80;;;;;;5009974;28;20045;-79
2023/07/20 05:42:04;;;;;;;45.38;12.73;;;29.40;86.40;;;;;;5010001;28;20037;-79
2023/07/20 05:45:09;;;;;;;42.00;12.40;;;29.50;86.10;;;;;;5009497;28;20053;-79
2023/07/20 05:48:13;;;;;;;29.30;11.32;;;29.50;85.60;;;;;;5009230;28;20138;-79
2023/07/20 05:51:17;;;;;;;46.60;11.77;;;29.40;85.80;;;;;;5009857;28;20051;-79
2023/07/20 05:54:20;;;;;;;36.20;9.90;;;29.40;85.40;;;;;;5009987;28;20053;-79
2023/07/20 05:57:24;;;;;;;35.95;10.02;;;29.40;83.10;;;;;;5009495;28;20045;-79
2023/07/20 06:00:28;;;;;;;29.63;10.75;;;29.40;83.50;;;;;;5009737;28;20037;-79
2023/07/20 06:03:33;;;;;;;40.90;12.02;;;29.40;84.70;;;;;;5009490;28;20053;-79
2023/07/20 06:06:37;;;;;;;34.40;12.15;;;29.70;84.10;;;;;;5009753;28;20049;-79
2023/07/20 06:09:41;;;;;;;31.55;13.30;;;30.10;82.50;;;;;;5009442;28;20056;-79
2023/07/20 06:12:45;;;;;;;36.28;15.40;;;30.40;82.40;;;;;;5009429;28;20057;-79
2023/07/20 06:15:49;;;;;;;42.08;15.27;;;30.70;81.00;;;;;;5009374;28;20409;-79
2023/07/20 06:18:53;;;;;;;41.22;16.05;;;31.00;80.50;;;;;;5009611;28;20205;-79
2023/07/20 06:21:57;;;;;;;34.30;15.25;;;31.20;78.70;;;;;;5009566;28;20398;-79
2023/07/20 06:25:01;;;;;;;41.97;15.43;;;31.30;79.40;;;;;;5009213;28;20041;-79
2023/07/20 06:28:05;;;;;;;44.88;15.75;;;31.50;79.20;;;;;;5009244;28;20049;-76
2023/07/20 06:31:09;;;;;;;33.47;12.82;;;31.80;80.00;;;;;;5009273;28;20052;-76
2023/07/20 06:34:13;;;;;;;39.13;13.93;;;32.90;77.90;;;;;;5008855;28;20053;-76
2023/07/20 06:37:17;;;;;;;46.72;13.00;;;34.00;76.50;;;;;;5009107;28;20049;-80
2023/07/20 06:40:21;;;;;;;47.03;13.48;;;34.70;74.80;;;;;;5009349;28;20508;-80
2023/07/20 06:43:25;;;;;;;39.60;12.20;;;35.30;73.90;;;;;;4997500;28;20045;-79
2023/07/20 06:46:29;;;;;;;35.38;11.88;;;35.70;73.00;;;;;;5008367;28;20509;-78
2023/07/20 06:49:33;;;;;;;25.55;9.57;;;35.90;73.40;;;;;;5009009;28;20041;-77
2023/07/20 06:52:37;;;;;;;46.22;10.85;;;36.20;76.70;;;;;;5008947;28;20044;-78
2023/07/20 06:55:44;;;;;;;38.80;10.60;;;36.40;75.50;;;;;;5008767;28;20508;-83
2023/07/20 06:58:48;;;;;;;27.20;11.68;;;36.60;75.00;;;;;;5008286;28;20064;-78
2023/07/20 07:01:52;;;;;;;30.13;13.05;;;37.00;74.60;;;;;;5009415;28;20394;-80
2023/07/20 07:04:56;;;;;;;35.88;12.38;;;37.20;74.10;;;;;;5008132;28;20057;-79
2023/07/20 07:07:59;;;;;;;32.53;11.10;;;37.30;75.70;;;;;;5008725;28;20045;-80
2023/07/20 07:11:03;;;;;;;31.30;11.57;;;37.50;76.10;;;;;;5008727;28;20045;-80
2023/07/20 07:14:07;;;;;;;31.33;11.82;;;37.60;75.00;;;;;;5008630;28;20041;-78
2023/07/20 07:17:11;;;;;;;33.15;11.82;;;37.70;73.70;;;;;;5007890;28;20045;-77
2023/07/20 07:20:15;;;;;;;25.77;10.70;;;37.70;74.10;;;;;;5009015;28;20049;-76
2023/07/20 07:23:19;;;;;;;31.58;11.20;;;38.00;73.00;;;;;;5008635;28;20381;-76
2023/07/20 07:26:24;;;;;;;35.10;12.98;;;38.00;72.70;;;;;;5008672;28;20045;-75
2023/07/20 07:29:28;;;;;;;41.70;11.63;;;38.30;71.40;;;;;;5008740;28;20049;-78
2023/07/20 07:32:32;;;;;;;30.40;10.52;;;38.30;70.80;;;;;;5008478;28;20056;-79
2023/07/20 07:35:37;;;;;;;39.75;10.98;;;38.40;72.20;;;;;;5008402;28;20060;-81
2023/07/20 07:38:40;;;;;;;31.27;10.07;;;38.50;71.30;;;;;;5007729;28;20053;-79
2023/07/20 07:41:44;;;;;;;31.42;10.18;;;38.60;70.90;;;;;;5008663;28;20077;-80
2023/07/20 07:44:48;;;;;;;30.27;9.45;;;38.60;70.40;;;;;;5008041;28;20069;-77
2023/07/20 07:47:52;;;;;;;24.73;8.77;;;38.60;70.30;;;;;;5008808;28;20053;-79
2023/07/20 07:50:56;;;;;;;31.42;9.20;;;38.90;69.90;;;;;;5008370;28;20053;-82
2023/07/20 07:54:00;;;;;;;22.77;8.20;;;39.10;69.20;;;;;;5008254;28;20057;-80
2023/07/20 07:57:04;;;;;;;25.75;8.80;;;39.20;69.60;;;;;;5009381;28;20065;-87
2023/07/20 08:00:14;;;;;;;29.63;9.73;;;39.40;70.00;;;;;;5008228;28;20052;-80
2023/07/20 08:03:18;;;;;;;27.17;8.50;;;39.30;68.50;;;;;;5008777;28;20049;-82
2023/07/20 08:06:23;;;;;;;31.90;9.00;;;39.50;68.30;;;;;;5014765;28;20049;-84
2023/07/20 08:09:27;;;;;;;32.25;9.90;;;39.60;68.40;;;;;;5013676;28;20041;-81
2023/07/20 08:12:31;;;;;;;38.70;11.93;;;39.60;68.10;;;;;;5011571;28;20045;-86
2023/07/20 08:15:36;;;;;;;34.78;9.20;;;39.50;69.10;;;;;;5011758;28;20049;-79
2023/07/20 08:18:40;;;;;;;30.88;8.52;;;39.50;68.70;;;;;;5011493;28;20354;-81
2023/07/20 08:21:44;;;;;;;20.55;7.50;;;39.50;68.40;;;;;;5011269;28;20041;-79
2023/07/20 08:24:48;;;;;;;26.30;7.80;;;39.70;68.00;;;;;;5010320;28;20378;-82
2023/07/20 08:27:52;;;;;;;30.38;8.20;;;39.60;67.30;;;;;;5011088;28;20052;-79
2023/07/20 08:30:55;;;;;;;20.80;8.75;;;39.50;68.90;;;;;;5011376;28;20491;-84
2023/07/20 08:33:59;;;;;;;25.10;8.57;;;39.40;68.90;;;;;;5010740;28;20053;-77
2023/07/20 08:37:03;;;;;;;26.95;8.27;;;39.50;69.50;;;;;;5010767;28;20041;-75
2023/07/20 08:40:08;;;;;;;29.00;8.23;;;39.40;69.40;;;;;;5010918;28;20053;-79
2023/07/20 08:43:16;;;;;;;26.58;9.82;;;39.40;68.70;;;;;;5011006;28;20049;-79
2023/07/20 08:46:21;;;;;;;25.98;7.78;;;39.30;69.20;;;;;;5010793;28;20049;-75
2023/07/20 08:49:26;;;;;;;27.83;8.25;;;39.50;67.00;;;;;;5010484;28;20049;-79
2023/07/20 08:52:34;;;;;;;58.80;10.73;;;39.70;65.90;;;;;;5010990;28;20076;-88
2023/07/20 08:55:40;;;;;;;30.23;8.45;;;39.80;66.90;;;;;;5011178;28;20496;-81
2023/07/20 08:58:44;;;;;;;27.20;8.73;;;39.60;66.70;;;;;;5010386;28;20056;-80
2023/07/20 09:01:49;;;;;;;21.75;9.40;;;39.70;67.60;;;;;;5010092;28;20056;-76
2023/07/20 09:04:53;;;;;;;27.52;9.68;;;39.90;67.30;;;;;;5009643;28;20049;-78
2023/07/20 09:07:57;;;;;;;28.65;8.75;;;40.00;67.40;;;;;;5010650;28;20057;-78
2023/07/20 09:11:01;;;;;;;105.78;13.55;;;40.40;66.90;;;;;;5009694;28;20116;-78
2023/07/20 09:14:10;;;;;;;276.45;30.20;;;40.10;66.80;;;;;;5010877;28;20246;-83
2023/07/20 09:17:15;;;;;;;59.08;11.65;;;39.90;67.60;;;;;;5010480;28;20053;-81
2023/07/20 09:20:20;;;;;;;29.50;9.00;;;40.10;66.60;;;;;;5009949;28;20048;-86
2023/07/20 09:23:31;;;;;;;18.00;7.97;;;40.40;66.20;;;;;;5009592;28;20393;-79
2023/07/20 09:26:41;;;;;;;23.85;9.18;;;40.60;65.90;;;;;;5009961;28;20057;-81
2023/07/20 09:29:50;;;;;;;32.72;10.18;;;40.50;65.90;;;;;;5010787;28;20057;-81
2023/07/20 09:32:55;;;;;;;30.08;10.27;;;40.20;66.60;;;;;;5010099;28;20049;-82
2023/07/20 09:36:02;;;;;;;39.90;11.52;;;40.50;67.30;;;;;;5010471;28;20053;-81
2023/07/20 09:39:07;;;;;;;53.78;11.43;;;40.50;67.40;;;;;;5009402;28;20061;-81
2023/07/20 09:42:14;;;;;;;22.27;8.18;;;40.50;65.60;;;;;;5011022;28;20048;-80
2023/07/20 09:45:19;;;;;;;37.03;9.45;;;40.40;65.60;;;;;;5010321;28;20049;-82
2023/07/20 09:48:26;;;;;;;24.92;7.95;;;40.30;65.10;;;;;;4998416;28;20053;-85
2023/07/20 09:51:30;;;;;;;94.55;10.75;;;40.30;64.30;;;;;;5009455;28;20049;-79
2023/07/20 09:54:35;;;;;;;127.45;14.25;;;40.50;63.60;;;;;;5009190;28;20053;-78
2023/07/20 09:57:39;;;;;;;36.80;8.02;;;40.40;60.80;;;;;;5009984;28;20052;-79
2023/07/20 10:00:46;;;;;;;32.00;7.35;;;40.30;59.80;;;;;;5009332;28;20053;-80
2023/07/20 10:03:54;;;;;;;241.25;20.92;;;40.40;57.90;;;;;;5009702;28;20049;-77
2023/07/20 10:07:03;;;;;;;171.52;19.23;;;40.80;55.20;;;;;;5009921;28;20052;-79
2023/07/20 10:10:10;;;;;;;21.07;6.40;;;40.80;55.80;;;;;;5009819;28;20037;-79
2023/07/20 10:13:18;;;;;;;37.78;7.70;;;40.90;57.20;;;;;;5009625;28;20057;-78
2023/07/20 10:16:31;;;;;;;28.85;7.03;;;40.60;58.90;;;;;;5009492;28;20037;-81
2023/07/20 10:19:44;;;;;;;22.85;6.88;;;40.50;58.80;;;;;;4997784;28;20045;-73
2023/07/20 10:22:52;;;;;;;22.02;7.28;;;40.60;57.30;;;;;;5009645;28;20397;-80
2023/07/20 10:25:58;;;;;;;24.80;6.90;;;40.10;57.10;;;;;;5009661;28;20080;-83
2023/07/20 10:29:03;;;;;;;16.77;6.70;;;39.70;58.80;;;;;;5008478;28;20045;-81
2023/07/20 10:32:08;;;;;;;26.55;6.82;;;39.50;58.60;;;;;;5009584;28;20049;-82
2023/07/20 10:35:14;;;;;;;21.75;6.50;;;39.20;56.90;;;;;;5009173;28;20057;-80
2023/07/20 10:38:19;;;;;;;21.10;6.53;;;38.90;56.50;;;;;;5009306;28;20041;-75
2023/07/20 10:41:35;;;;;;;20.17;6.53;;;38.80;54.90;;;;;;5008708;28;20056;-79
2023/07/20 10:44:40;;;;;;;25.13;7.43;;;38.60;55.50;;;;;;5009463;28;20049;-80
2023/07/20 10:47:47;;;;;;;19.50;6.47;;;38.60;56.20;;;;;;5009534;28;20045;-79
2023/07/20 10:51:16;;;;;;;25.13;6.45;;;38.50;57.00;;;;;;4997128;28;20055;-78
2023/07/20 10:54:20;;;;;;;25.80;7.38;;;38.40;56.50;;;;;;5008106;28;20068;-77
2023/07/20 10:57:30;;;;;;;17.17;6.38;;;38.30;57.30;;;;;;5009153;28;20061;-77
2023/07/20 11:00:34;;;;;;;;;;;38.30;58.10;;;;;;5008257;28;20508;-77
2023/07/20 11:03:39;;;;;;;14.93;5.70;;;38.20;57.70;;;;;;5009199;28;20380;-77
2023/07/20 11:06:44;;;;;;;19.92;6.70;;;38.10;58.20;;;;;;5007909;28;20056;-78
2023/07/20 11:09:48;;;;;;;20.05;6.28;;;38.00;58.40;;;;;;5008646;28;20053;-76
2023/07/20 11:13:17;;;;;;;22.83;7.60;;;38.00;58.50;;;;;;5008893;28;20049;-77
2023/07/20 11:16:33;;;;;;;24.52;6.88;;;38.00;58.50;;;;;;5008733;28;20053;-77
2023/07/20 11:19:40;;;;;;;19.92;6.68;;;37.90;60.00;;;;;;5008550;28;20056;-77
2023/07/20 11:22:44;;;;;;;23.75;7.18;;;37.70;61.30;;;;;;5008608;28;20052;-77
2023/07/20 11:25:49;;;;;;;24.88;8.18;;;37.70;61.70;;;;;;5008589;28;20036;-77
2023/07/20 11:28:53;;;;;;;18.30;6.97;;;37.70;61.70;;;;;;5008823;28;20044;-77
2023/07/20 11:31:58;;;;;;;19.20;7.03;;;37.70;61.90;;;;;;4996766;28;20041;-78
2023/07/20 11:35:02;;;;;;;23.00;8.05;;;37.70;62.40;;;;;;5007548;28;20056;-77
2023/07/20 11:38:07;;;;;;;30.77;8.23;;;37.70;63.40;;;;;;5008663;28;20374;-77
2023/07/20 11:41:10;;;;;;;18.02;7.15;;;37.70;64.90;;;;;;5008571;28;20413;-77
2023/07/20 11:44:16;;;;;;;21.52;7.45;;;37.70;65.60;;;;;;5007933;28;20045;-77
2023/07/20 11:47:20;;;;;;;22.48;8.32;;;37.70;66.50;;;;;;5008454;28;20045;-76
2023/07/20 11:50:24;;;;;;;16.38;6.25;;;37.60;66.30;;;;;;5008067;28;20041;-77
2023/07/20 11:53:29;;;;;;;34.17;8.50;;;37.50;66.90;;;;;;5007905;28;20061;-76
2023/07/20 11:56:33;;;;;;;24.23;6.60;;;37.50;66.50;;;;;;5008341;28;20053;-77
2023/07/20 11:59:37;;;;;;;24.42;7.88;;;37.40;66.70;;;;;;5008001;28;20053;-77
2023/07/20 12:02:41;;;;;;;19.85;6.75;;;37.50;67.50;;;;;;5008364;28;20421;-77
2023/07/20 12:05:45;;;;;;;19.65;6.65;;;37.40;67.70;;;;;;5007099;28;20049;-77
2023/07/20 12:08:49;;;;;;;13.98;6.18;;;37.40;67.80;;;;;;5008151;28;20041;-77
2023/07/20 12:11:53;;;;;;;26.58;7.45;;;37.40;68.60;;;;;;5007844;28;20417;-77
2023/07/20 12:15:22;;;;;;;22.05;7.57;;;37.40;68.80;;;;;;5007847;28;20057;-77
2023/07/20 12:18:35;;;;;;;16.33;6.38;;;37.40;68.90;;;;;;5008408;28;20112;-77
2023/07/20 12:21:42;;;;;;;20.40;6.35;;;37.40;68.70;;;;;;5007707;28;20049;-77
2023/07/20 12:24:46;;;;;;;30.75;7.93;;;37.30;68.30;;;;;;5007833;28;20053;-77
2023/07/20 12:27:50;;;;;;;29.02;6.72;;;37.30;70.10;;;;;;5007988;28;20068;-75
2023/07/20 12:30:56;;;;;;;26.73;7.32;;;38.20;70.30;;;;;;5008105;28;20049;-75
2023/07/20 12:34:00;;;;;;;24.05;7.40;;;39.40;68.90;;;;;;5006708;28;20060;-77
2023/07/20 12:37:04;;;;;;;18.45;6.85;;;40.10;67.00;;;;;;5007716;28;20394;-76
2023/07/20 12:40:10;;;;;;;24.92;7.18;;;40.50;66.70;;;;;;5008160;28;20052;-75
2023/07/20 12:43:14;;;;;;;23.23;6.88;;;40.30;65.60;;;;;;5008093;28;20049;-76
2023/07/20 12:46:18;;;;;;;20.40;6.07;;;40.30;66.20;;;;;;5007928;28;20183;-76
2023/07/20 12:49:22;;;;;;;21.52;7.03;;;40.40;66.40;;;;;;5007105;28;20064;-76
2023/07/20 12:52:26;;;;;;;26.60;7.15;;;40.10;67.00;;;;;;5007907;28;20406;-75
2023/07/20 12:55:31;;;;;;;21.75;6.95;;;39.90;66.90;;;;;;5009192;28;20052;-76
2023/07/20 12:58:37;;;;;;;21.15;7.22;;;39.60;67.20;;;;;;5010663;28;20041;-84
2023/07/20 13:01:41;;;;;;;21.35;6.90;;;39.60;67.50;;;;;;5010836;28;20048;-80
2023/07/20 13:04:45;;;;;;;31.17;7.03;;;39.70;68.00;;;;;;5011158;28;20051;-82
2023/07/20 13:07:49;;;;;;;22.83;6.85;;;39.70;67.40;;;;;;5011034;28;20036;-79
2023/07/20 13:10:53;;;;;;;24.92;6.88;;;39.40;68.00;;;;;;5011424;28;20049;-79
2023/07/20 13:13:57;;;;;;;27.55;7.28;;;39.40;68.00;;;;;;5011158;28;20049;-80
2023/07/20 13:17:01;;;;;;;53.30;8.82;;;39.50;68.10;;;;;;5011422;28;20045;-79
2023/07/20 13:20:09;;;;;;;27.23;6.80;;;39.60;67.60;;;;;;5011115;28;20045;-79
2023/07/20 13:23:13;;;;;;;23.80;6.63;;;39.30;68.30;;;;;;5010857;28;20037;-79
2023/07/20 13:26:17;;;;;;;22.00;7.20;;;39.30;68.20;;;;;;5010744;28;20053;-79
2023/07/20 13:29:21;;;;;;;19.80;9.05;;;39.50;68.40;;;;;;5010446;28;20041;-81
2023/07/20 13:32:26;;;;;;;33.10;6.97;;;39.60;68.20;;;;;;5010641;28;20048;-76
2023/07/20 13:35:30;;;;;;;23.30;7.00;;;39.70;67.50;;;;;;5010729;28;20402;-78
2023/07/20 13:38:34;;;;;;;30.88;6.40;;;39.60;67.20;;;;;;5010388;28;20045;-80
2023/07/20 13:41:38;;;;;;;31.67;7.32;;;39.70;67.10;;;;;;5010377;28;20041;-80
2023/07/20 13:44:42;;;;;;;23.77;6.32;;;39.90;67.30;;;;;;5009912;28;20045;-84
2023/07/20 13:47:46;;;;;;;16.80;6.18;;;40.10;68.00;;;;;;5010344;28;20410;-82
2023/07/20 13:50:50;;;;;;;22.05;5.72;;;40.40;67.20;;;;;;5010311;28;20390;-78
2023/07/20 13:53:55;;;;;;;25.70;6.43;;;40.30;67.90;;;;;;5010386;28;20064;-79
2023/07/20 13:56:59;;;;;;;17.15;6.18;;;40.10;67.70;;;;;;5009633;28;20045;-76
2023/07/20 14:00:04;;;;;;;24.33;6.72;;;40.10;67.40;;;;;;5010378;28;20049;-78
2023/07/20 14:03:16;;;;;;;27.58;6.57;;;40.00;67.90;;;;;;5009252;28;20488;-79
2023/07/20 14:06:21;;;;;;;19.58;6.85;;;39.80;67.40;;;;;;5009770;28;20060;-80
2023/07/20 14:09:24;;;;;;;24.55;6.85;;;39.40;67.90;;;;;;5009921;28;20052;-78
2023/07/20 14:12:28;;;;;;;27.00;6.50;;;39.50;68.70;;;;;;5010257;28;20523;-81
2023/07/20 14:15:33;;;;;;;24.80;7.03;;;39.70;68.30;;;;;;5009270;28;20052;-77
2023/07/20 14:18:37;;;;;;;22.35;6.78;;;39.40;69.20;;;;;;5010178;28;20097;-78
2023/07/20 14:21:41;;;;;;;21.85;6.57;;;39.20;70.30;;;;;;5009861;28;20115;-79
2023/07/20 14:24:45;;;;;;;36.58;6.10;;;39.30;70.40;;;;;;5008484;28;20045;-77
2023/07/20 14:27:49;;;;;;;31.63;6.45;;;39.30;70.20;;;;;;5009637;28;20049;-78
2023/07/20 14:30:53;;;;;;;34.63;10.52;;;39.40;69.20;;;;;;5009666;28;20109;-78
2023/07/20 14:33:58;;;;;;;22.55;6.65;;;39.30;68.80;;;;;;5009258;28;20060;-81
2023/07/20 14:37:02;;;;;;;22.95;6.93;;;39.20;70.10;;;;;;5009446;28;20049;-77
2023/07/20 14:40:06;;;;;;;24.75;6.32;;;39.10;69.60;;;;;;5009634;28;20504;-76
2023/07/20 14:43:10;;;;;;;21.42;6.40;;;38.90;69.70;;;;;;5009640;28;20045;-82
2023/07/20 14:46:14;;;;;;;33.47;8.30;;;38.80;69.70;;;;;;5009358;28;20504;-78
2023/07/20 14:49:18;;;;;;;20.40;6.00;;;38.80;70.70;;;;;;5009220;28;20167;-79
2023/07/20 14:52:22;;;;;;;21.95;6.70;;;38.80;71.40;;;;;;5009006;28;20041;-79
2023/07/20 14:55:26;;;;;;;22.42;6.40;;;38.80;71.50;;;;;;5007840;28;20064;-77
2023/07/20 14:58:32;;;;;;;22.90;6.07;;;38.70;71.10;;;;;;5007276;28;20045;-77
2023/07/20 15:01:35;;;;;;;23.90;5.70;;;38.50;70.70;;;;;;5008463;28;20053;-78
2023/07/20 15:04:47;;;;;;;28.40;7.70;;;38.20;71.60;;;;;;5009152;28;20053;-80
2023/07/20 15:07:51;;;;;;;21.35;6.10;;;38.20;72.80;;;;;;4985927;28;20162;-78
2023/07/20 15:10:55;;;;;;;25.50;6.47;;;38.50;72.20;;;;;;5009186;28;20049;-77
2023/07/20 15:13:58;;;;;;;23.55;7.38;;;38.40;72.70;;;;;;5008194;28;20516;-76
2023/07/20 15:17:03;;;;;;;21.40;6.65;;;38.60;71.50;;;;;;5008355;28;20037;-81
2023/07/20 15:20:09;;;;;;;25.67;7.63;;;38.60;71.00;;;;;;5007974;28;20049;-78
2023/07/20 15:23:14;;;;;;;17.77;6.80;;;38.50;72.40;;;;;;5008835;28;20405;-74
2023/07/20 15:26:19;;;;;;;24.17;6.47;;;38.40;71.80;;;;;;5008589;28;20053;-77
2023/07/20 15:29:23;;;;;;;25.90;6.25;;;38.60;70.30;;;;;;5008734;28;20045;-80
2023/07/20 15:32:27;;;;;;;20.25;5.82;;;38.80;70.50;;;;;;5007693;28;20052;-81
2023/07/20 15:35:30;;;;;;;23.20;6.38;;;38.90;69.30;;;;;;5008759;28;20048;-87
2023/07/20 15:38:34;;;;;;;24.02;7.35;;;38.70;70.00;;;;;;5008708;28;20045;-81
2023/07/20 15:41:38;;;;;;;20.40;5.70;;;38.70;68.90;;;;;;5008755;28;20672;-80
2023/07/20 15:44:42;;;;;;;27.60;6.40;;;38.90;69.10;;;;;;5007460;28;20049;-76
2023/07/20 15:47:46;;;;;;;22.67;5.93;;;38.60;70.00;;;;;;5008465;28;20057;-77